sensor_id;sensor_type;location;lat;lon;timestamp;temperature;humidity
71994;DHT22;59861;50.268;8.648;2023-02-15T00:02:05;16.50;50.70
71994;DHT22;59861;50.268;8.648;2023-02-15T00:04:32;16.50;50.80
71994;DHT22;59861;50.268;8.648;2023-02-15T00:07:14;16.50;50.70
71994;DHT22;59861;50.268;8.648;2023-02-15T00:09:42;16.40;50.70
71994;DHT22;59861;50.268;8.648;2023-02-15T00:12:09;16.50;50.60
71994;DHT22;59861;50.268;8.648;2023-02-15T00:14:36;16.40;50.60
71994;DHT22;59861;50.268;8.648;2023-02-15T00:17:03;16.40;50.60
71994;DHT22;59861;50.268;8.648;2023-02-15T00:19:29;16.40;50.60
71994;DHT22;59861;50.268;8.648;2023-02-15T00:21:56;16.40;50.60
71994;DHT22;59861;50.268;8.648;2023-02-15T00:24:23;16.40;50.60
71994;DHT22;59861;50.268;8.648;2023-02-15T00:26:50;16.40;51.30
71994;DHT22;59861;50.268;8.648;2023-02-15T00:29:18;16.40;50.60
71994;DHT22;59861;50.268;8.648;2023-02-15T00:31:45;16.30;50.60
71994;DHT22;59861;50.268;8.648;2023-02-15T00:34:21;16.30;50.60
71994;DHT22;59861;50.268;8.648;2023-02-15T00:36:44;16.30;50.60
71994;DHT22;59861;50.268;8.648;2023-02-15T00:39:11;16.30;50.60
71994;DHT22;59861;50.268;8.648;2023-02-15T00:41:38;16.30;50.60
71994;DHT22;59861;50.268;8.648;2023-02-15T00:44:05;16.30;50.60
71994;DHT22;59861;50.268;8.648;2023-02-15T00:46:32;16.30;50.60
71994;DHT22;59861;50.268;8.648;2023-02-15T00:48:59;16.30;50.70
71994;DHT22;59861;50.268;8.648;2023-02-15T00:51:26;16.20;50.70
71994;DHT22;59861;50.268;8.648;2023-02-15T00:53:53;16.30;50.70
71994;DHT22;59861;50.268;8.648;2023-02-15T00:56:20;16.20;50.70
71994;DHT22;59861;50.268;8.648;2023-02-15T00:58:47;16.20;50.70
71994;DHT22;59861;50.268;8.648;2023-02-15T01:01:16;16.20;50.70
71994;DHT22;59861;50.268;8.648;2023-02-15T01:03:42;16.20;50.70
71994;DHT22;59861;50.268;8.648;2023-02-15T01:06:09;16.20;51.40
71994;DHT22;59861;50.268;8.648;2023-02-15T01:08:37;16.20;50.70
71994;DHT22;59861;50.268;8.648;2023-02-15T01:11:04;16.10;50.70
71994;DHT22;59861;50.268;8.648;2023-02-15T01:13:32;16.10;50.60
71994;DHT22;59861;50.268;8.648;2023-02-15T01:15:59;16.10;50.60
71994;DHT22;59861;50.268;8.648;2023-02-15T01:18:26;16.10;50.70
71994;DHT22;59861;50.268;8.648;2023-02-15T01:20:53;16.10;50.60
71994;DHT22;59861;50.268;8.648;2023-02-15T01:23:20;16.10;50.60
71994;DHT22;59861;50.268;8.648;2023-02-15T01:25:47;16.10;50.70
71994;DHT22;59861;50.268;8.648;2023-02-15T01:28:14;16.10;50.70
71994;DHT22;59861;50.268;8.648;2023-02-15T01:30:40;16.10;50.70
71994;DHT22;59861;50.268;8.648;2023-02-15T01:33:07;16.10;50.70
71994;DHT22;59861;50.268;8.648;2023-02-15T01:35:36;16.10;50.60
71994;DHT22;59861;50.268;8.648;2023-02-15T01:38:03;16.00;50.70
71994;DHT22;59861;50.268;8.648;2023-02-15T01:40:30;16.10;50.70
71994;DHT22;59861;50.268;8.648;2023-02-15T01:42:56;16.10;50.70
71994;DHT22;59861;50.268;8.648;2023-02-15T01:45:25;16.00;50.70
71994;DHT22;59861;50.268;8.648;2023-02-15T01:48:03;16.00;50.70
71994;DHT22;59861;50.268;8.648;2023-02-15T01:50:34;16.00;50.70
71994;DHT22;59861;50.268;8.648;2023-02-15T01:53:03;16.00;50.70
71994;DHT22;59861;50.268;8.648;2023-02-15T01:55:34;16.00;50.70
71994;DHT22;59861;50.268;8.648;2023-02-15T01:58:01;16.00;50.80
71994;DHT22;59861;50.268;8.648;2023-02-15T02:00:28;16.00;50.70
71994;DHT22;59861;50.268;8.648;2023-02-15T02:02:55;16.00;50.70
71994;DHT22;59861;50.268;8.648;2023-02-15T02:05:23;16.00;50.70
71994;DHT22;59861;50.268;8.648;2023-02-15T02:07:50;15.90;50.70
71994;DHT22;59861;50.268;8.648;2023-02-15T02:10:19;15.90;50.60
71994;DHT22;59861;50.268;8.648;2023-02-15T02:12:46;15.90;50.70
71994;DHT22;59861;50.268;8.648;2023-02-15T02:15:14;15.90;50.70
71994;DHT22;59861;50.268;8.648;2023-02-15T02:17:49;15.90;50.70
71994;DHT22;59861;50.268;8.648;2023-02-15T02:20:17;15.90;50.70
71994;DHT22;59861;50.268;8.648;2023-02-15T02:22:49;15.90;50.70
71994;DHT22;59861;50.268;8.648;2023-02-15T02:28:07;15.90;50.60
71994;DHT22;59861;50.268;8.648;2023-02-15T02:33:21;15.90;50.70
71994;DHT22;59861;50.268;8.648;2023-02-15T02:38:32;15.80;50.70
71994;DHT22;59861;50.268;8.648;2023-02-15T02:43:37;15.80;50.60
71994;DHT22;59861;50.268;8.648;2023-02-15T02:46:00;15.80;50.60
71994;DHT22;59861;50.268;8.648;2023-02-15T02:48:29;15.80;50.60
71994;DHT22;59861;50.268;8.648;2023-02-15T02:50:56;15.80;50.60
71994;DHT22;59861;50.268;8.648;2023-02-15T02:53:23;15.80;50.70
71994;DHT22;59861;50.268;8.648;2023-02-15T02:55:53;15.80;50.70
71994;DHT22;59861;50.268;8.648;2023-02-15T02:58:20;15.70;50.70
71994;DHT22;59861;50.268;8.648;2023-02-15T03:00:53;15.70;50.60
71994;DHT22;59861;50.268;8.648;2023-02-15T03:05:50;15.70;50.60
71994;DHT22;59861;50.268;8.648;2023-02-15T03:08:19;15.70;50.70
71994;DHT22;59861;50.268;8.648;2023-02-15T03:10:52;15.70;50.70
71994;DHT22;59861;50.268;8.648;2023-02-15T03:13:18;15.70;51.00
71994;DHT22;59861;50.268;8.648;2023-02-15T03:15:45;15.60;50.90
71994;DHT22;59861;50.268;8.648;2023-02-15T03:18:33;15.60;51.20
71994;DHT22;59861;50.268;8.648;2023-02-15T03:20:59;15.60;51.30
71994;DHT22;59861;50.268;8.648;2023-02-15T03:23:28;15.60;51.20
71994;DHT22;59861;50.268;8.648;2023-02-15T03:26:03;15.60;51.20
71994;DHT22;59861;50.268;8.648;2023-02-15T03:28:38;15.60;51.20
71994;DHT22;59861;50.268;8.648;2023-02-15T03:31:05;15.60;51.30
71994;DHT22;59861;50.268;8.648;2023-02-15T03:33:33;15.60;51.30
71994;DHT22;59861;50.268;8.648;2023-02-15T03:36:02;15.60;51.20
71994;DHT22;59861;50.268;8.648;2023-02-15T03:38:33;15.60;51.20
71994;DHT22;59861;50.268;8.648;2023-02-15T03:40:58;15.60;51.20
71994;DHT22;59861;50.268;8.648;2023-02-15T03:43:40;15.60;51.20
71994;DHT22;59861;50.268;8.648;2023-02-15T03:46:07;15.60;51.10
71994;DHT22;59861;50.268;8.648;2023-02-15T03:48:41;15.60;51.20
71994;DHT22;59861;50.268;8.648;2023-02-15T03:51:10;15.60;51.20
71994;DHT22;59861;50.268;8.648;2023-02-15T03:53:55;15.60;51.20
71994;DHT22;59861;50.268;8.648;2023-02-15T03:56:22;15.60;51.20
71994;DHT22;59861;50.268;8.648;2023-02-15T03:58:49;15.50;51.10
71994;DHT22;59861;50.268;8.648;2023-02-15T04:01:39;15.60;51.20
71994;DHT22;59861;50.268;8.648;2023-02-15T04:04:21;15.60;51.20
71994;DHT22;59861;50.268;8.648;2023-02-15T04:06:48;15.60;51.20
71994;DHT22;59861;50.268;8.648;2023-02-15T04:09:15;15.60;51.20
71994;DHT22;59861;50.268;8.648;2023-02-15T04:11:59;15.60;51.20
71994;DHT22;59861;50.268;8.648;2023-02-15T04:14:26;15.60;51.10
71994;DHT22;59861;50.268;8.648;2023-02-15T04:17:11;15.60;51.10
71994;DHT22;59861;50.268;8.648;2023-02-15T04:19:38;15.60;51.10
71994;DHT22;59861;50.268;8.648;2023-02-15T04:22:23;15.60;51.10
71994;DHT22;59861;50.268;8.648;2023-02-15T04:25:07;15.60;50.90
71994;DHT22;59861;50.268;8.648;2023-02-15T04:27:42;15.60;50.90
71994;DHT22;59861;50.268;8.648;2023-02-15T04:30:08;15.60;50.80
71994;DHT22;59861;50.268;8.648;2023-02-15T04:32:36;15.70;50.80
71994;DHT22;59861;50.268;8.648;2023-02-15T04:35:03;15.60;50.70
71994;DHT22;59861;50.268;8.648;2023-02-15T04:37:30;15.60;50.80
71994;DHT22;59861;50.268;8.648;2023-02-15T04:39:57;15.60;50.70
71994;DHT22;59861;50.268;8.648;2023-02-15T04:42:26;15.60;50.90
71994;DHT22;59861;50.268;8.648;2023-02-15T04:44:54;15.50;50.90
71994;DHT22;59861;50.268;8.648;2023-02-15T04:47:21;15.50;51.00
71994;DHT22;59861;50.268;8.648;2023-02-15T04:49:48;15.50;51.00
71994;DHT22;59861;50.268;8.648;2023-02-15T04:52:15;15.50;51.00
71994;DHT22;59861;50.268;8.648;2023-02-15T04:54:43;15.50;50.90
71994;DHT22;59861;50.268;8.648;2023-02-15T04:57:10;15.50;50.80
71994;DHT22;59861;50.268;8.648;2023-02-15T04:59:37;15.50;50.80
71994;DHT22;59861;50.268;8.648;2023-02-15T05:02:04;15.50;50.80
71994;DHT22;59861;50.268;8.648;2023-02-15T05:04:31;15.50;50.80
71994;DHT22;59861;50.268;8.648;2023-02-15T05:06:58;15.50;50.90
71994;DHT22;59861;50.268;8.648;2023-02-15T05:09:24;15.40;51.00
71994;DHT22;59861;50.268;8.648;2023-02-15T05:11:51;15.40;51.10
71994;DHT22;59861;50.268;8.648;2023-02-15T05:14:18;15.40;51.00
71994;DHT22;59861;50.268;8.648;2023-02-15T05:16:45;15.40;51.00
71994;DHT22;59861;50.268;8.648;2023-02-15T05:19:11;15.40;51.00
71994;DHT22;59861;50.268;8.648;2023-02-15T05:21:38;15.40;51.70
71994;DHT22;59861;50.268;8.648;2023-02-15T05:24:05;15.40;51.00
71994;DHT22;59861;50.268;8.648;2023-02-15T05:26:34;15.50;51.00
71994;DHT22;59861;50.268;8.648;2023-02-15T05:29:18;15.40;51.10
71994;DHT22;59861;50.268;8.648;2023-02-15T05:31:45;15.40;51.00
71994;DHT22;59861;50.268;8.648;2023-02-15T05:34:13;15.50;51.20
71994;DHT22;59861;50.268;8.648;2023-02-15T05:36:40;15.40;51.40
71994;DHT22;59861;50.268;8.648;2023-02-15T05:39:07;15.50;51.10
71994;DHT22;59861;50.268;8.648;2023-02-15T05:41:34;15.40;51.10
71994;DHT22;59861;50.268;8.648;2023-02-15T05:44:00;15.50;51.10
71994;DHT22;59861;50.268;8.648;2023-02-15T05:46:27;15.50;51.10
71994;DHT22;59861;50.268;8.648;2023-02-15T05:48:54;15.50;51.10
71994;DHT22;59861;50.268;8.648;2023-02-15T05:51:21;15.50;51.10
71994;DHT22;59861;50.268;8.648;2023-02-15T05:53:48;15.50;51.20
71994;DHT22;59861;50.268;8.648;2023-02-15T05:56:14;15.50;51.10
71994;DHT22;59861;50.268;8.648;2023-02-15T05:58:41;15.50;51.10
71994;DHT22;59861;50.268;8.648;2023-02-15T06:01:13;15.50;51.10
71994;DHT22;59861;50.268;8.648;2023-02-15T06:03:40;15.50;51.00
71994;DHT22;59861;50.268;8.648;2023-02-15T06:06:07;15.50;51.00
71994;DHT22;59861;50.268;8.648;2023-02-15T06:08:35;15.50;51.00
71994;DHT22;59861;50.268;8.648;2023-02-15T06:11:02;15.50;51.00
71994;DHT22;59861;50.268;8.648;2023-02-15T06:13:29;15.50;51.10
71994;DHT22;59861;50.268;8.648;2023-02-15T06:15:56;15.50;51.00
71994;DHT22;59861;50.268;8.648;2023-02-15T06:18:23;15.50;51.10
71994;DHT22;59861;50.268;8.648;2023-02-15T06:20:49;15.50;50.90
71994;DHT22;59861;50.268;8.648;2023-02-15T06:23:16;15.50;51.00
71994;DHT22;59861;50.268;8.648;2023-02-15T06:25:44;15.50;51.00
71994;DHT22;59861;50.268;8.648;2023-02-15T06:28:11;15.50;51.00
71994;DHT22;59861;50.268;8.648;2023-02-15T06:30:37;15.60;51.00
71994;DHT22;59861;50.268;8.648;2023-02-15T06:33:04;15.50;50.90
71994;DHT22;59861;50.268;8.648;2023-02-15T06:35:31;15.50;51.40
71994;DHT22;59861;50.268;8.648;2023-02-15T06:37:58;15.50;50.90
71994;DHT22;59861;50.268;8.648;2023-02-15T06:40:25;15.50;51.00
71994;DHT22;59861;50.268;8.648;2023-02-15T06:42:52;15.50;51.00
71994;DHT22;59861;50.268;8.648;2023-02-15T06:45:18;15.50;51.00
71994;DHT22;59861;50.268;8.648;2023-02-15T06:47:45;15.50;51.00
71994;DHT22;59861;50.268;8.648;2023-02-15T06:50:14;15.40;51.00
71994;DHT22;59861;50.268;8.648;2023-02-15T06:52:40;15.50;51.00
71994;DHT22;59861;50.268;8.648;2023-02-15T06:55:07;15.50;51.10
71994;DHT22;59861;50.268;8.648;2023-02-15T06:57:34;15.50;51.00
71994;DHT22;59861;50.268;8.648;2023-02-15T07:00:01;15.40;51.00
71994;DHT22;59861;50.268;8.648;2023-02-15T07:02:29;15.40;51.00
71994;DHT22;59861;50.268;8.648;2023-02-15T07:04:56;15.40;51.10
71994;DHT22;59861;50.268;8.648;2023-02-15T07:07:23;15.40;51.10
71994;DHT22;59861;50.268;8.648;2023-02-15T07:09:50;15.40;51.00
71994;DHT22;59861;50.268;8.648;2023-02-15T07:12:17;15.40;51.00
71994;DHT22;59861;50.268;8.648;2023-02-15T07:15:02;15.40;51.00
71994;DHT22;59861;50.268;8.648;2023-02-15T07:17:30;15.40;51.00
71994;DHT22;59861;50.268;8.648;2023-02-15T07:19:57;15.40;51.00
71994;DHT22;59861;50.268;8.648;2023-02-15T07:22:24;15.40;51.00
71994;DHT22;59861;50.268;8.648;2023-02-15T07:24:51;15.40;50.90
71994;DHT22;59861;50.268;8.648;2023-02-15T07:27:19;15.40;50.90
71994;DHT22;59861;50.268;8.648;2023-02-15T07:29:46;15.40;50.90
71994;DHT22;59861;50.268;8.648;2023-02-15T07:32:13;15.40;50.90
71994;DHT22;59861;50.268;8.648;2023-02-15T07:34:40;15.40;50.80
71994;DHT22;59861;50.268;8.648;2023-02-15T07:37:07;15.40;50.70
71994;DHT22;59861;50.268;8.648;2023-02-15T07:39:33;15.40;50.70
71994;DHT22;59861;50.268;8.648;2023-02-15T07:42:00;15.40;50.70
71994;DHT22;59861;50.268;8.648;2023-02-15T07:44:27;15.40;50.70
71994;DHT22;59861;50.268;8.648;2023-02-15T07:46:54;15.40;50.60
71994;DHT22;59861;50.268;8.648;2023-02-15T07:49:21;15.40;50.80
71994;DHT22;59861;50.268;8.648;2023-02-15T07:51:47;15.40;50.80
71994;DHT22;59861;50.268;8.648;2023-02-15T07:54:14;15.40;50.90
71994;DHT22;59861;50.268;8.648;2023-02-15T07:56:41;15.40;50.80
71994;DHT22;59861;50.268;8.648;2023-02-15T07:59:08;15.40;50.90
71994;DHT22;59861;50.268;8.648;2023-02-15T08:01:36;15.40;50.80
71994;DHT22;59861;50.268;8.648;2023-02-15T08:04:04;15.40;50.70
71994;DHT22;59861;50.268;8.648;2023-02-15T08:06:33;15.40;50.70
71994;DHT22;59861;50.268;8.648;2023-02-15T08:09:02;15.40;50.70
71994;DHT22;59861;50.268;8.648;2023-02-15T08:11:33;15.30;50.70
71994;DHT22;59861;50.268;8.648;2023-02-15T08:14:07;15.30;50.60
71994;DHT22;59861;50.268;8.648;2023-02-15T08:16:31;15.30;50.70
71994;DHT22;59861;50.268;8.648;2023-02-15T08:19:00;15.30;50.70
71994;DHT22;59861;50.268;8.648;2023-02-15T08:21:28;15.30;50.60
71994;DHT22;59861;50.268;8.648;2023-02-15T08:23:55;15.30;50.60
71994;DHT22;59861;50.268;8.648;2023-02-15T08:26:22;15.40;50.50
71994;DHT22;59861;50.268;8.648;2023-02-15T08:28:50;15.40;50.80
71994;DHT22;59861;50.268;8.648;2023-02-15T08:31:18;15.40;50.40
71994;DHT22;59861;50.268;8.648;2023-02-15T08:33:45;15.40;50.40
71994;DHT22;59861;50.268;8.648;2023-02-15T08:36:13;15.40;50.30
71994;DHT22;59861;50.268;8.648;2023-02-15T08:38:41;15.40;50.30
71994;DHT22;59861;50.268;8.648;2023-02-15T08:41:11;15.40;50.30
71994;DHT22;59861;50.268;8.648;2023-02-15T08:43:39;15.40;50.30
71994;DHT22;59861;50.268;8.648;2023-02-15T08:46:06;15.40;50.30
71994;DHT22;59861;50.268;8.648;2023-02-15T08:48:33;15.40;50.30
71994;DHT22;59861;50.268;8.648;2023-02-15T08:51:03;15.40;50.30
71994;DHT22;59861;50.268;8.648;2023-02-15T08:53:28;15.40;50.30
71994;DHT22;59861;50.268;8.648;2023-02-15T08:55:55;15.40;50.30
71994;DHT22;59861;50.268;8.648;2023-02-15T08:58:23;15.50;50.10
71994;DHT22;59861;50.268;8.648;2023-02-15T09:00:50;15.40;50.10
71994;DHT22;59861;50.268;8.648;2023-02-15T09:03:17;15.40;50.00
71994;DHT22;59861;50.268;8.648;2023-02-15T09:05:44;15.40;50.10
71994;DHT22;59861;50.268;8.648;2023-02-15T09:08:10;15.40;50.10
71994;DHT22;59861;50.268;8.648;2023-02-15T09:10:37;15.40;50.10
71994;DHT22;59861;50.268;8.648;2023-02-15T09:13:04;15.40;50.00
71994;DHT22;59861;50.268;8.648;2023-02-15T09:15:31;15.40;50.10
71994;DHT22;59861;50.268;8.648;2023-02-15T09:17:58;15.40;50.00
71994;DHT22;59861;50.268;8.648;2023-02-15T09:20:29;15.40;50.10
71994;DHT22;59861;50.268;8.648;2023-02-15T09:22:56;15.40;50.10
71994;DHT22;59861;50.268;8.648;2023-02-15T09:25:22;15.40;50.10
71994;DHT22;59861;50.268;8.648;2023-02-15T09:27:49;15.40;50.00
71994;DHT22;59861;50.268;8.648;2023-02-15T09:30:16;15.40;50.20
71994;DHT22;59861;50.268;8.648;2023-02-15T09:32:43;15.30;50.40
71994;DHT22;59861;50.268;8.648;2023-02-15T09:35:11;15.20;50.60
71994;DHT22;59861;50.268;8.648;2023-02-15T09:37:38;15.20;50.80
71994;DHT22;59861;50.268;8.648;2023-02-15T09:40:05;15.20;50.70
71994;DHT22;59861;50.268;8.648;2023-02-15T09:42:44;15.20;50.80
71994;DHT22;59861;50.268;8.648;2023-02-15T09:45:14;15.20;50.80
71994;DHT22;59861;50.268;8.648;2023-02-15T09:47:44;15.20;50.80
71994;DHT22;59861;50.268;8.648;2023-02-15T09:50:14;15.20;50.80
71994;DHT22;59861;50.268;8.648;2023-02-15T09:55:26;15.20;50.70
71994;DHT22;59861;50.268;8.648;2023-02-15T09:58:05;15.20;50.80
71994;DHT22;59861;50.268;8.648;2023-02-15T10:00:34;15.20;50.80
71994;DHT22;59861;50.268;8.648;2023-02-15T10:03:07;15.20;50.90
71994;DHT22;59861;50.268;8.648;2023-02-15T10:13:17;15.10;51.70
71994;DHT22;59861;50.268;8.648;2023-02-15T10:15:48;15.00;51.70
71994;DHT22;59861;50.268;8.648;2023-02-15T10:20:49;15.10;52.00
71994;DHT22;59861;50.268;8.648;2023-02-15T10:23:21;15.10;51.90
71994;DHT22;59861;50.268;8.648;2023-02-15T10:25:46;15.20;51.90
71994;DHT22;59861;50.268;8.648;2023-02-15T10:28:15;15.20;51.80
71994;DHT22;59861;50.268;8.648;2023-02-15T10:30:46;15.20;51.80
71994;DHT22;59861;50.268;8.648;2023-02-15T10:33:24;15.20;51.90
71994;DHT22;59861;50.268;8.648;2023-02-15T10:36:01;15.20;51.90
71994;DHT22;59861;50.268;8.648;2023-02-15T10:38:28;15.20;51.90
71994;DHT22;59861;50.268;8.648;2023-02-15T10:43:43;15.30;52.00
71994;DHT22;59861;50.268;8.648;2023-02-15T10:46:11;15.30;52.00
71994;DHT22;59861;50.268;8.648;2023-02-15T10:51:34;15.00;51.50
71994;DHT22;59861;50.268;8.648;2023-02-15T10:53:58;15.00;51.90
71994;DHT22;59861;50.268;8.648;2023-02-15T10:56:29;15.00;52.00
71994;DHT22;59861;50.268;8.648;2023-02-15T11:01:41;15.00;52.90
71994;DHT22;59861;50.268;8.648;2023-02-15T11:06:41;15.00;52.30
71994;DHT22;59861;50.268;8.648;2023-02-15T11:09:09;15.00;52.30
71994;DHT22;59861;50.268;8.648;2023-02-15T11:11:39;15.10;52.30
71994;DHT22;59861;50.268;8.648;2023-02-15T11:14:21;15.10;52.20
71994;DHT22;59861;50.268;8.648;2023-02-15T11:16:50;15.10;52.20
71994;DHT22;59861;50.268;8.648;2023-02-15T11:19:28;15.20;52.30
71994;DHT22;59861;50.268;8.648;2023-02-15T11:21:58;15.20;52.30
71994;DHT22;59861;50.268;8.648;2023-02-15T11:24:27;15.30;52.20
71994;DHT22;59861;50.268;8.648;2023-02-15T11:26:56;15.30;52.20
71994;DHT22;59861;50.268;8.648;2023-02-15T11:31:55;15.30;52.20
71994;DHT22;59861;50.268;8.648;2023-02-15T11:34:33;15.40;52.40
71994;DHT22;59861;50.268;8.648;2023-02-15T11:37:01;15.40;52.40
71994;DHT22;59861;50.268;8.648;2023-02-15T11:39:29;15.50;52.30
71994;DHT22;59861;50.268;8.648;2023-02-15T11:41:59;15.50;52.30
71994;DHT22;59861;50.268;8.648;2023-02-15T11:44:31;15.60;52.50
71994;DHT22;59861;50.268;8.648;2023-02-15T11:46:54;15.60;52.40
71994;DHT22;59861;50.268;8.648;2023-02-15T11:49:30;15.60;52.30
71994;DHT22;59861;50.268;8.648;2023-02-15T11:51:49;15.70;52.30
71994;DHT22;59861;50.268;8.648;2023-02-15T11:54:18;15.70;52.20
71994;DHT22;59861;50.268;8.648;2023-02-15T11:56:45;15.70;52.30
71994;DHT22;59861;50.268;8.648;2023-02-15T11:59:21;15.70;53.20
71994;DHT22;59861;50.268;8.648;2023-02-15T12:01:46;15.80;52.40
71994;DHT22;59861;50.268;8.648;2023-02-15T12:06:49;15.80;52.50
71994;DHT22;59861;50.268;8.648;2023-02-15T12:14:49;15.90;52.60
71994;DHT22;59861;50.268;8.648;2023-02-15T12:17:17;15.90;52.60
71994;DHT22;59861;50.268;8.648;2023-02-15T12:19:44;15.90;52.50
71994;DHT22;59861;50.268;8.648;2023-02-15T12:22:23;15.90;52.50
71994;DHT22;59861;50.268;8.648;2023-02-15T12:24:50;16.00;52.60
71994;DHT22;59861;50.268;8.648;2023-02-15T12:27:20;16.00;52.60
71994;DHT22;59861;50.268;8.648;2023-02-15T12:29:49;16.00;52.50
71994;DHT22;59861;50.268;8.648;2023-02-15T12:32:17;16.00;52.70
71994;DHT22;59861;50.268;8.648;2023-02-15T12:34:45;16.00;52.60
71994;DHT22;59861;50.268;8.648;2023-02-15T12:37:20;16.00;52.50
71994;DHT22;59861;50.268;8.648;2023-02-15T12:39:51;16.00;52.50
71994;DHT22;59861;50.268;8.648;2023-02-15T12:42:19;16.00;52.60
71994;DHT22;59861;50.268;8.648;2023-02-15T12:45:04;16.00;52.60
71994;DHT22;59861;50.268;8.648;2023-02-15T12:47:27;16.00;52.50
71994;DHT22;59861;50.268;8.648;2023-02-15T12:50:09;16.00;52.60
71994;DHT22;59861;50.268;8.648;2023-02-15T12:52:37;16.00;52.30
71994;DHT22;59861;50.268;8.648;2023-02-15T13:00:36;16.20;52.40
71994;DHT22;59861;50.268;8.648;2023-02-15T13:03:03;16.20;52.40
71994;DHT22;59861;50.268;8.648;2023-02-15T13:05:40;16.30;52.40
71994;DHT22;59861;50.268;8.648;2023-02-15T13:08:17;16.40;52.50
71994;DHT22;59861;50.268;8.648;2023-02-15T13:13:24;16.50;52.60
71994;DHT22;59861;50.268;8.648;2023-02-15T13:15:51;16.50;52.60
71994;DHT22;59861;50.268;8.648;2023-02-15T13:18:20;16.60;52.70
71994;DHT22;59861;50.268;8.648;2023-02-15T13:20:47;16.60;52.70
71994;DHT22;59861;50.268;8.648;2023-02-15T13:23:23;16.60;52.80
71994;DHT22;59861;50.268;8.648;2023-02-15T13:25:49;16.70;53.10
71994;DHT22;59861;50.268;8.648;2023-02-15T13:28:16;16.70;53.00
71994;DHT22;59861;50.268;8.648;2023-02-15T13:30:48;16.70;53.00
71994;DHT22;59861;50.268;8.648;2023-02-15T13:35:52;16.80;53.30
71994;DHT22;59861;50.268;8.648;2023-02-15T13:40:48;16.80;53.30
71994;DHT22;59861;50.268;8.648;2023-02-15T13:43:18;16.70;52.70
71994;DHT22;59861;50.268;8.648;2023-02-15T13:45:50;16.50;52.30
71994;DHT22;59861;50.268;8.648;2023-02-15T14:07:02;14.60;51.70
71994;DHT22;59861;50.268;8.648;2023-02-15T14:09:11;15.00;51.20
71994;DHT22;59861;50.268;8.648;2023-02-15T14:11:50;15.20;51.10
71994;DHT22;59861;50.268;8.648;2023-02-15T14:14:19;15.40;50.90
71994;DHT22;59861;50.268;8.648;2023-02-15T14:24:41;15.70;51.10
71994;DHT22;59861;50.268;8.648;2023-02-15T14:29:48;15.70;51.20
71994;DHT22;59861;50.268;8.648;2023-02-15T14:32:17;15.70;51.30
71994;DHT22;59861;50.268;8.648;2023-02-15T14:34:54;15.70;51.30
71994;DHT22;59861;50.268;8.648;2023-02-15T14:37:20;15.80;51.40
71994;DHT22;59861;50.268;8.648;2023-02-15T14:40:01;15.80;51.40
71994;DHT22;59861;50.268;8.648;2023-02-15T14:42:53;15.80;51.50
71994;DHT22;59861;50.268;8.648;2023-02-15T14:45:21;15.80;51.50
71994;DHT22;59861;50.268;8.648;2023-02-15T14:47:49;15.90;51.60
71994;DHT22;59861;50.268;8.648;2023-02-15T14:55:41;15.90;51.70
71994;DHT22;59861;50.268;8.648;2023-02-15T14:58:11;15.90;51.60
71994;DHT22;59861;50.268;8.648;2023-02-15T15:00:39;15.90;51.80
71994;DHT22;59861;50.268;8.648;2023-02-15T15:03:16;14.70;44.80
71994;DHT22;59861;50.268;8.648;2023-02-15T15:05:46;12.90;46.70
71994;DHT22;59861;50.268;8.648;2023-02-15T15:10:52;13.80;52.00
71994;DHT22;59861;50.268;8.648;2023-02-15T15:18:47;15.20;50.90
71994;DHT22;59861;50.268;8.648;2023-02-15T15:23:59;15.40;50.90
71994;DHT22;59861;50.268;8.648;2023-02-15T15:26:27;15.50;51.00
71994;DHT22;59861;50.268;8.648;2023-02-15T15:28:55;15.50;51.20
71994;DHT22;59861;50.268;8.648;2023-02-15T15:36:42;15.60;51.40
71994;DHT22;59861;50.268;8.648;2023-02-15T15:41:53;15.60;51.80
71994;DHT22;59861;50.268;8.648;2023-02-15T15:47:13;15.80;51.70
71994;DHT22;59861;50.268;8.648;2023-02-15T15:49:37;15.80;51.70
71994;DHT22;59861;50.268;8.648;2023-02-15T15:52:17;15.70;51.60
71994;DHT22;59861;50.268;8.648;2023-02-15T15:54:44;15.60;51.80
71994;DHT22;59861;50.268;8.648;2023-02-15T15:57:19;15.70;52.00
71994;DHT22;59861;50.268;8.648;2023-02-15T15:59:44;15.80;51.50
71994;DHT22;59861;50.268;8.648;2023-02-15T16:02:15;13.40;46.70
71994;DHT22;59861;50.268;8.648;2023-02-15T16:04:43;14.10;52.40
71994;DHT22;59861;50.268;8.648;2023-02-15T16:07:14;14.60;52.80
71994;DHT22;59861;50.268;8.648;2023-02-15T16:09:52;14.90;53.40
71994;DHT22;59861;50.268;8.648;2023-02-15T16:12:13;15.10;52.50
71994;DHT22;59861;50.268;8.648;2023-02-15T16:14:39;15.30;52.40
71994;DHT22;59861;50.268;8.648;2023-02-15T16:17:07;15.50;53.10
71994;DHT22;59861;50.268;8.648;2023-02-15T16:19:36;15.60;54.30
71994;DHT22;59861;50.268;8.648;2023-02-15T16:22:03;15.60;52.20
71994;DHT22;59861;50.268;8.648;2023-02-15T16:24:44;15.80;52.20
71994;DHT22;59861;50.268;8.648;2023-02-15T16:27:11;16.00;52.10
71994;DHT22;59861;50.268;8.648;2023-02-15T16:29:37;16.00;52.10
71994;DHT22;59861;50.268;8.648;2023-02-15T16:32:05;16.00;52.00
71994;DHT22;59861;50.268;8.648;2023-02-15T16:34:32;15.90;52.10
71994;DHT22;59861;50.268;8.648;2023-02-15T16:37:15;16.10;52.10
71994;DHT22;59861;50.268;8.648;2023-02-15T16:39:43;16.10;52.20
71994;DHT22;59861;50.268;8.648;2023-02-15T16:42:11;16.20;52.60
71994;DHT22;59861;50.268;8.648;2023-02-15T16:44:38;16.30;52.80
71994;DHT22;59861;50.268;8.648;2023-02-15T16:47:08;16.40;52.90
71994;DHT22;59861;50.268;8.648;2023-02-15T16:49:34;16.40;53.00
71994;DHT22;59861;50.268;8.648;2023-02-15T16:52:02;16.40;53.30
71994;DHT22;59861;50.268;8.648;2023-02-15T16:54:31;16.40;53.50
71994;DHT22;59861;50.268;8.648;2023-02-15T16:56:58;16.40;53.60
71994;DHT22;59861;50.268;8.648;2023-02-15T16:59:38;16.50;53.70
71994;DHT22;59861;50.268;8.648;2023-02-15T17:02:13;16.50;53.80
71994;DHT22;59861;50.268;8.648;2023-02-15T17:04:36;16.50;53.80
71994;DHT22;59861;50.268;8.648;2023-02-15T17:07:05;16.60;54.00
71994;DHT22;59861;50.268;8.648;2023-02-15T17:09:32;16.60;54.00
71994;DHT22;59861;50.268;8.648;2023-02-15T17:12:00;16.60;54.10
71994;DHT22;59861;50.268;8.648;2023-02-15T17:14:28;16.60;54.20
71994;DHT22;59861;50.268;8.648;2023-02-15T17:16:59;16.60;54.10
71994;DHT22;59861;50.268;8.648;2023-02-15T17:19:32;16.60;54.10
71994;DHT22;59861;50.268;8.648;2023-02-15T17:21:56;16.70;54.10
71994;DHT22;59861;50.268;8.648;2023-02-15T17:24:39;16.70;54.00
71994;DHT22;59861;50.268;8.648;2023-02-15T17:27:10;16.70;54.10
71994;DHT22;59861;50.268;8.648;2023-02-15T17:29:39;16.70;54.00
71994;DHT22;59861;50.268;8.648;2023-02-15T17:32:12;16.80;54.30
71994;DHT22;59861;50.268;8.648;2023-02-15T17:34:46;16.80;54.20
71994;DHT22;59861;50.268;8.648;2023-02-15T17:37:13;16.80;54.20
71994;DHT22;59861;50.268;8.648;2023-02-15T17:39:40;16.80;54.20